sensor_id;sensor_type;location;lat;lon;timestamp;temperature;humidity
53675;DHT22;39574;50.534;8.500;2022-08-01T00:01:11;21.8;99.9
53675;DHT22;39574;50.534;8.500;2022-08-01T00:06:20;21.8;99.9
53675;DHT22;39574;50.534;8.500;2022-08-01T00:11:35;21.8;99.9
53675;DHT22;39574;50.534;8.500;2022-08-01T00:16:36;21.8;99.9
53675;DHT22;39574;50.534;8.500;2022-08-01T00:21:37;21.8;99.9
53675;DHT22;39574;50.534;8.500;2022-08-01T00:30:48;21.8;99.9
53675;DHT22;39574;50.534;8.500;2022-08-01T00:36:18;21.9;99.9
53675;DHT22;39574;50.534;8.500;2022-08-01T00:41:19;22.0;99.9
53675;DHT22;39574;50.534;8.500;2022-08-01T00:46:33;22.1;99.9
53675;DHT22;39574;50.534;8.500;2022-08-01T00:51:36;22.2;99.9
53675;DHT22;39574;50.534;8.500;2022-08-01T01:01:15;22.3;99.9
53675;DHT22;39574;50.534;8.500;2022-08-01T01:06:21;22.2;99.9
53675;DHT22;39574;50.534;8.500;2022-08-01T01:11:20;22.1;99.9
53675;DHT22;39574;50.534;8.500;2022-08-01T01:16:20;22.1;99.9
53675;DHT22;39574;50.534;8.500;2022-08-01T01:21:35;22.1;99.9
53675;DHT22;39574;50.534;8.500;2022-08-01T01:31:02;22.0;99.9
53675;DHT22;39574;50.534;8.500;2022-08-01T01:36:16;22.0;99.9
53675;DHT22;39574;50.534;8.500;2022-08-01T01:41:17;21.9;99.9
53675;DHT22;39574;50.534;8.500;2022-08-01T01:46:29;21.8;99.9
53675;DHT22;39574;50.534;8.500;2022-08-01T01:55:45;21.7;99.9
53675;DHT22;39574;50.534;8.500;2022-08-01T02:01:00;21.6;99.9
53675;DHT22;39574;50.534;8.500;2022-08-01T02:06:11;21.6;99.9
53675;DHT22;39574;50.534;8.500;2022-08-01T02:11:13;21.6;99.9
53675;DHT22;39574;50.534;8.500;2022-08-01T02:16:28;21.5;99.9
53675;DHT22;39574;50.534;8.500;2022-08-01T02:25:39;21.5;99.9
53675;DHT22;39574;50.534;8.500;2022-08-01T02:31:08;21.4;99.9
53675;DHT22;39574;50.534;8.500;2022-08-01T02:36:11;21.4;99.9
53675;DHT22;39574;50.534;8.500;2022-08-01T02:41:25;21.4;99.9
53675;DHT22;39574;50.534;8.500;2022-08-01T02:50:59;21.4;99.9
53675;DHT22;39574;50.534;8.500;2022-08-01T02:56:08;21.4;99.9
53675;DHT22;39574;50.534;8.500;2022-08-01T03:01:09;21.4;99.9
53675;DHT22;39574;50.534;8.500;2022-08-01T03:06:24;21.4;99.9
53675;DHT22;39574;50.534;8.500;2022-08-01T03:15:52;21.4;99.9
53675;DHT22;39574;50.534;8.500;2022-08-01T03:20:54;21.3;99.9
53675;DHT22;39574;50.534;8.500;2022-08-01T03:26:06;21.3;99.9
53675;DHT22;39574;50.534;8.500;2022-08-01T03:31:20;21.2;99.9
53675;DHT22;39574;50.534;8.500;2022-08-01T03:36:24;21.2;99.9
53675;DHT22;39574;50.534;8.500;2022-08-01T03:45:49;21.1;99.9
53675;DHT22;39574;50.534;8.500;2022-08-01T03:50:50;21.1;99.9
53675;DHT22;39574;50.534;8.500;2022-08-01T03:56:00;21.1;99.9
53675;DHT22;39574;50.534;8.500;2022-08-01T04:01:14;21.0;99.9
53675;DHT22;39574;50.534;8.500;2022-08-01T04:06:19;20.9;99.9
53675;DHT22;39574;50.534;8.500;2022-08-01T04:11:19;20.9;99.9
53675;DHT22;39574;50.534;8.500;2022-08-01T04:20:46;20.9;99.9
53675;DHT22;39574;50.534;8.500;2022-08-01T04:25:47;20.9;99.9
53675;DHT22;39574;50.534;8.500;2022-08-01T04:31:00;20.9;99.9
53675;DHT22;39574;50.534;8.500;2022-08-01T04:36:13;20.9;99.9
53675;DHT22;39574;50.534;8.500;2022-08-01T04:41:15;20.9;99.9
53675;DHT22;39574;50.534;8.500;2022-08-01T04:50:23;20.9;99.9
53675;DHT22;39574;50.534;8.500;2022-08-01T04:55:42;20.9;99.9
53675;DHT22;39574;50.534;8.500;2022-08-01T05:00:44;20.9;99.9
53675;DHT22;39574;50.534;8.500;2022-08-01T05:05:53;20.9;99.9
53675;DHT22;39574;50.534;8.500;2022-08-01T05:10:55;20.8;99.9
53675;DHT22;39574;50.534;8.500;2022-08-01T05:15:55;20.8;99.9
53675;DHT22;39574;50.534;8.500;2022-08-01T05:21:06;20.6;99.9
53675;DHT22;39574;50.534;8.500;2022-08-01T05:26:12;20.4;99.9
53675;DHT22;39574;50.534;8.500;2022-08-01T05:35:30;20.4;99.9
53675;DHT22;39574;50.534;8.500;2022-08-01T05:40:32;20.4;99.9
53675;DHT22;39574;50.534;8.500;2022-08-01T05:45:37;20.5;99.9
53675;DHT22;39574;50.534;8.500;2022-08-01T05:50:38;20.6;99.9
53675;DHT22;39574;50.534;8.500;2022-08-01T05:55:47;20.7;99.9
53675;DHT22;39574;50.534;8.500;2022-08-01T06:00:52;20.8;99.9
53675;DHT22;39574;50.534;8.500;2022-08-01T06:05:52;21.0;99.9
53675;DHT22;39574;50.534;8.500;2022-08-01T06:11:03;21.0;99.9
53675;DHT22;39574;50.534;8.500;2022-08-01T06:20:34;21.1;99.9
53675;DHT22;39574;50.534;8.500;2022-08-01T06:25:36;21.2;99.9
53675;DHT22;39574;50.534;8.500;2022-08-01T06:30:48;21.4;99.9
53675;DHT22;39574;50.534;8.500;2022-08-01T06:36:00;21.5;99.9
53675;DHT22;39574;50.534;8.500;2022-08-01T06:45:22;21.6;99.9
53675;DHT22;39574;50.534;8.500;2022-08-01T06:50:30;21.6;99.9
53675;DHT22;39574;50.534;8.500;2022-08-01T06:55:42;21.7;99.9
53675;DHT22;39574;50.534;8.500;2022-08-01T07:00:45;21.7;99.9
53675;DHT22;39574;50.534;8.500;2022-08-01T07:05:45;21.8;99.9
53675;DHT22;39574;50.534;8.500;2022-08-01T07:11:00;21.8;99.9
53675;DHT22;39574;50.534;8.500;2022-08-01T07:20:19;22.1;99.9
53675;DHT22;39574;50.534;8.500;2022-08-01T07:25:25;22.4;99.9
53675;DHT22;39574;50.534;8.500;2022-08-01T07:30:26;22.7;99.9
53675;DHT22;39574;50.534;8.500;2022-08-01T07:35:27;22.8;99.9
53675;DHT22;39574;50.534;8.500;2022-08-01T07:40:38;22.8;99.9
53675;DHT22;39574;50.534;8.500;2022-08-01T07:45:38;22.8;99.9
53675;DHT22;39574;50.534;8.500;2022-08-01T07:50:41;22.7;99.9
53675;DHT22;39574;50.534;8.500;2022-08-01T07:55:51;22.5;99.9
53675;DHT22;39574;50.534;8.500;2022-08-01T08:05:22;22.6;99.9
53675;DHT22;39574;50.534;8.500;2022-08-01T08:10:23;22.8;99.9
53675;DHT22;39574;50.534;8.500;2022-08-01T08:15:38;23.1;99.9
53675;DHT22;39574;50.534;8.500;2022-08-01T08:20:50;23.3;99.9
53675;DHT22;39574;50.534;8.500;2022-08-01T08:25:52;23.7;99.9
53675;DHT22;39574;50.534;8.500;2022-08-01T08:35:21;24.0;99.9
53675;DHT22;39574;50.534;8.500;2022-08-01T08:40:35;24.3;99.9
53675;DHT22;39574;50.534;8.500;2022-08-01T08:45:35;24.5;99.9
53675;DHT22;39574;50.534;8.500;2022-08-01T08:50:46;24.4;99.9
53675;DHT22;39574;50.534;8.500;2022-08-01T08:55:47;24.5;99.9
53675;DHT22;39574;50.534;8.500;2022-08-01T09:00:48;24.8;99.9
53675;DHT22;39574;50.534;8.500;2022-08-01T09:10:29;25.2;99.9
53675;DHT22;39574;50.534;8.500;2022-08-01T09:15:38;25.6;99.9
53675;DHT22;39574;50.534;8.500;2022-08-01T09:20:35;25.4;99.9
53675;DHT22;39574;50.534;8.500;2022-08-01T09:25:49;25.4;99.9
53675;DHT22;39574;50.534;8.500;2022-08-01T09:35:22;25.5;99.9
53675;DHT22;39574;50.534;8.500;2022-08-01T09:40:43;25.8;99.9
53675;DHT22;39574;50.534;8.500;2022-08-01T09:45:31;25.9;99.9
53675;DHT22;39574;50.534;8.500;2022-08-01T09:50:38;26.2;99.9
53675;DHT22;39574;50.534;8.500;2022-08-01T09:55:33;26.6;99.9
53675;DHT22;39574;50.534;8.500;2022-08-01T10:00:34;26.6;99.9
53675;DHT22;39574;50.534;8.500;2022-08-01T10:05:46;26.3;99.9
53675;DHT22;39574;50.534;8.500;2022-08-01T10:15:10;26.0;99.9
53675;DHT22;39574;50.534;8.500;2022-08-01T10:20:28;25.8;99.9
53675;DHT22;39574;50.534;8.500;2022-08-01T10:25:33;25.6;99.9
53675;DHT22;39574;50.534;8.500;2022-08-01T10:30:32;25.8;99.9
53675;DHT22;39574;50.534;8.500;2022-08-01T10:35:47;26.3;99.9
53675;DHT22;39574;50.534;8.500;2022-08-01T10:45:14;26.4;99.9
53675;DHT22;39574;50.534;8.500;2022-08-01T10:50:52;26.6;99.9
53675;DHT22;39574;50.534;8.500;2022-08-01T11:00:16;27.3;99.9
53675;DHT22;39574;50.534;8.500;2022-08-01T11:05:27;27.5;99.9
53675;DHT22;39574;50.534;8.500;2022-08-01T11:10:41;27.3;99.9
53675;DHT22;39574;50.534;8.500;2022-08-01T11:15:42;27.6;99.9
53675;DHT22;39574;50.534;8.500;2022-08-01T11:20:43;28.1;99.9
53675;DHT22;39574;50.534;8.500;2022-08-01T11:30:25;28.3;99.9
53675;DHT22;39574;50.534;8.500;2022-08-01T11:35:25;27.9;99.9
53675;DHT22;39574;50.534;8.500;2022-08-01T11:40:39;27.3;99.9
53675;DHT22;39574;50.534;8.500;2022-08-01T11:45:46;26.9;99.9
53675;DHT22;39574;50.534;8.500;2022-08-01T11:50:45;27.2;99.9
53675;DHT22;39574;50.534;8.500;2022-08-01T12:00:13;27.6;99.9
53675;DHT22;39574;50.534;8.500;2022-08-01T12:05:13;27.4;99.9
53675;DHT22;39574;50.534;8.500;2022-08-01T12:10:26;27.0;99.9
53675;DHT22;39574;50.534;8.500;2022-08-01T12:15:40;27.1;99.9
53675;DHT22;39574;50.534;8.500;2022-08-01T12:20:45;27.1;99.9
53675;DHT22;39574;50.534;8.500;2022-08-01T12:30:23;27.0;99.9
53675;DHT22;39574;50.534;8.500;2022-08-01T12:35:28;26.8;99.9
53675;DHT22;39574;50.534;8.500;2022-08-01T12:40:28;26.6;99.9
53675;DHT22;39574;50.534;8.500;2022-08-01T12:45:30;26.8;99.9
53675;DHT22;39574;50.534;8.500;2022-08-01T12:50:42;27.2;99.9
53675;DHT22;39574;50.534;8.500;2022-08-01T13:00:22;27.4;99.9
53675;DHT22;39574;50.534;8.500;2022-08-01T13:05:26;27.5;99.9
53675;DHT22;39574;50.534;8.500;2022-08-01T13:10:41;27.6;99.9
53675;DHT22;39574;50.534;8.500;2022-08-01T13:15:43;27.9;99.9
53675;DHT22;39574;50.534;8.500;2022-08-01T13:25:19;28.1;99.9
53675;DHT22;39574;50.534;8.500;2022-08-01T13:30:21;28.1;99.9
53675;DHT22;39574;50.534;8.500;2022-08-01T13:35:27;28.3;99.9
53675;DHT22;39574;50.534;8.500;2022-08-01T13:40:27;28.6;99.9
53675;DHT22;39574;50.534;8.500;2022-08-01T13:45:34;28.7;99.9
53675;DHT22;39574;50.534;8.500;2022-08-01T13:50:36;28.7;99.9
53675;DHT22;39574;50.534;8.500;2022-08-01T13:55:41;28.5;99.9
53675;DHT22;39574;50.534;8.500;2022-08-01T14:05:20;28.2;99.9
53675;DHT22;39574;50.534;8.500;2022-08-01T14:10:25;27.8;99.9
53675;DHT22;39574;50.534;8.500;2022-08-01T14:15:34;27.6;99.9
53675;DHT22;39574;50.534;8.500;2022-08-01T14:20:44;28.1;99.9
53675;DHT22;39574;50.534;8.500;2022-08-01T14:30:08;28.7;99.9
53675;DHT22;39574;50.534;8.500;2022-08-01T14:35:21;29.2;99.9
53675;DHT22;39574;50.534;8.500;2022-08-01T14:40:21;29.1;99.9
53675;DHT22;39574;50.534;8.500;2022-08-01T14:45:24;28.8;99.9
53675;DHT22;39574;50.534;8.500;2022-08-01T14:50:25;28.6;99.9
53675;DHT22;39574;50.534;8.500;2022-08-01T14:55:35;28.8;99.9
53675;DHT22;39574;50.534;8.500;2022-08-01T15:00:40;29.0;99.9
53675;DHT22;39574;50.534;8.500;2022-08-01T15:10:08;28.8;99.9
53675;DHT22;39574;50.534;8.500;2022-08-01T15:15:08;28.4;99.9
53675;DHT22;39574;50.534;8.500;2022-08-01T15:20:18;27.9;99.9
53675;DHT22;39574;50.534;8.500;2022-08-01T15:25:19;28.0;99.9
53675;DHT22;39574;50.534;8.500;2022-08-01T15:30:24;27.9;99.9
53675;DHT22;39574;50.534;8.500;2022-08-01T15:35:33;27.6;99.9
53675;DHT22;39574;50.534;8.500;2022-08-01T15:40:35;27.4;99.9
53675;DHT22;39574;50.534;8.500;2022-08-01T15:50:22;27.2;99.9
53675;DHT22;39574;50.534;8.500;2022-08-01T15:55:22;27.0;99.9
53675;DHT22;39574;50.534;8.500;2022-08-01T16:00:34;26.9;99.9
53675;DHT22;39574;50.534;8.500;2022-08-01T16:10:07;26.8;99.9
53675;DHT22;39574;50.534;8.500;2022-08-01T16:15:08;26.7;99.9
53675;DHT22;39574;50.534;8.500;2022-08-01T16:20:19;26.8;99.9
53675;DHT22;39574;50.534;8.500;2022-08-01T16:25:19;26.7;99.9
53675;DHT22;39574;50.534;8.500;2022-08-01T16:30:23;26.8;99.9
53675;DHT22;39574;50.534;8.500;2022-08-01T16:35:38;26.9;99.9
53675;DHT22;39574;50.534;8.500;2022-08-01T16:44:57;27.2;99.9
53675;DHT22;39574;50.534;8.500;2022-08-01T16:50:16;27.3;99.9
53675;DHT22;39574;50.534;8.500;2022-08-01T16:55:18;27.0;99.9
53675;DHT22;39574;50.534;8.500;2022-08-01T17:00:22;26.9;99.9
53675;DHT22;39574;50.534;8.500;2022-08-01T17:05:32;27.0;99.9
53675;DHT22;39574;50.534;8.500;2022-08-01T17:10:33;27.1;99.9
53675;DHT22;39574;50.534;8.500;2022-08-01T17:15:37;27.2;99.9
53675;DHT22;39574;50.534;8.500;2022-08-01T17:24:46;27.2;99.9
53675;DHT22;39574;50.534;8.500;2022-08-01T17:30:13;27.2;99.9
53675;DHT22;39574;50.534;8.500;2022-08-01T17:35:18;27.1;99.9
53675;DHT22;39574;50.534;8.500;2022-08-01T17:40:19;27.0;99.9
53675;DHT22;39574;50.534;8.500;2022-08-01T17:45:27;26.9;99.9
53675;DHT22;39574;50.534;8.500;2022-08-01T17:50:34;26.6;99.9
53675;DHT22;39574;50.534;8.500;2022-08-01T17:59:45;26.4;99.9
53675;DHT22;39574;50.534;8.500;2022-08-01T18:05:03;26.1;99.9
53675;DHT22;39574;50.534;8.500;2022-08-01T18:10:05;25.9;99.9
53675;DHT22;39574;50.534;8.500;2022-08-01T18:15:15;25.7;99.9
53675;DHT22;39574;50.534;8.500;2022-08-01T18:20:20;25.6;99.9
53675;DHT22;39574;50.534;8.500;2022-08-01T18:25:28;25.5;99.9
53675;DHT22;39574;50.534;8.500;2022-08-01T18:30:33;25.5;99.9
53675;DHT22;39574;50.534;8.500;2022-08-01T18:35:34;25.5;99.9
53675;DHT22;39574;50.534;8.500;2022-08-01T18:45:19;25.3;99.9
53675;DHT22;39574;50.534;8.500;2022-08-01T18:50:33;25.1;99.9
53675;DHT22;39574;50.534;8.500;2022-08-01T19:00:00;24.9;99.9
53675;DHT22;39574;50.534;8.500;2022-08-01T19:10:35;24.7;99.9
53675;DHT22;39574;50.534;8.500;2022-08-01T19:20:11;24.5;99.9
53675;DHT22;39574;50.534;8.500;2022-08-01T19:25:16;24.4;99.9
53675;DHT22;39574;50.534;8.500;2022-08-01T19:30:25;24.4;99.9
53675;DHT22;39574;50.534;8.500;2022-08-01T19:39:40;24.3;99.9
53675;DHT22;39574;50.534;8.500;2022-08-01T19:45:09;24.4;99.9
53675;DHT22;39574;50.534;8.500;2022-08-01T19:50:13;24.4;99.9
53675;DHT22;39574;50.534;8.500;2022-08-01T19:55:15;24.3;99.9
53675;DHT22;39574;50.534;8.500;2022-08-01T20:05:28;24.2;99.9
53675;DHT22;39574;50.534;8.500;2022-08-01T20:14:37;24.2;99.9
53675;DHT22;39574;50.534;8.500;2022-08-01T20:19:56;24.1;99.9
53675;DHT22;39574;50.534;8.500;2022-08-01T20:25:11;24.0;99.9
53675;DHT22;39574;50.534;8.500;2022-08-01T20:30:23;23.9;99.9
53675;DHT22;39574;50.534;8.500;2022-08-01T20:40:32;23.7;99.9
53675;DHT22;39574;50.534;8.500;2022-08-01T20:49:53;23.5;99.9
53675;DHT22;39574;50.534;8.500;2022-08-01T20:55:05;23.4;99.9
53675;DHT22;39574;50.534;8.500;2022-08-01T21:05:26;23.3;99.9
53675;DHT22;39574;50.534;8.500;2022-08-01T21:14:38;23.2;99.9
53675;DHT22;39574;50.534;8.500;2022-08-01T21:19:53;23.2;99.9
53675;DHT22;39574;50.534;8.500;2022-08-01T21:25:06;23.2;99.9
53675;DHT22;39574;50.534;8.500;2022-08-01T21:30:20;23.1;99.9
53675;DHT22;39574;50.534;8.500;2022-08-01T21:39:50;23.0;99.9
53675;DHT22;39574;50.534;8.500;2022-08-01T21:44:51;22.9;99.9
53675;DHT22;39574;50.534;8.500;2022-08-01T21:50:01;22.8;99.9
53675;DHT22;39574;50.534;8.500;2022-08-01T21:55:03;22.5;99.9
53675;DHT22;39574;50.534;8.500;2022-08-01T22:00:07;22.4;99.9
53675;DHT22;39574;50.534;8.500;2022-08-01T22:05:19;22.3;99.9
53675;DHT22;39574;50.534;8.500;2022-08-01T22:10:21;22.4;99.9
53675;DHT22;39574;50.534;8.500;2022-08-01T22:19:39;22.3;99.9
53675;DHT22;39574;50.534;8.500;2022-08-01T22:24:47;22.2;99.9
53675;DHT22;39574;50.534;8.500;2022-08-01T22:29:51;22.0;99.9
53675;DHT22;39574;50.534;8.500;2022-08-01T22:34:58;21.7;99.9
53675;DHT22;39574;50.534;8.500;2022-08-01T22:39:59;21.5;99.9
53675;DHT22;39574;50.534;8.500;2022-08-01T22:45:03;21.5;99.9
53675;DHT22;39574;50.534;8.500;2022-08-01T22:50:16;21.4;99.9
53675;DHT22;39574;50.534;8.500;2022-08-01T22:55:16;21.3;99.9
53675;DHT22;39574;50.534;8.500;2022-08-01T23:00:16;21.2;99.9
53675;DHT22;39574;50.534;8.500;2022-08-01T23:09:55;21.0;99.9
53675;DHT22;39574;50.534;8.500;2022-08-01T23:14:59;21.0;99.9
53675;DHT22;39574;50.534;8.500;2022-08-01T23:20:00;20.8;99.9
53675;DHT22;39574;50.534;8.500;2022-08-01T23:25:09;20.6;99.9
53675;DHT22;39574;50.534;8.500;2022-08-01T23:30:13;20.4;99.9
53675;DHT22;39574;50.534;8.500;2022-08-01T23:39:38;20.2;99.9
53675;DHT22;39574;50.534;8.500;2022-08-01T23:44:39;20.0;99.9
53675;DHT22;39574;50.534;8.500;2022-08-01T23:49:39;19.9;99.9
53675;DHT22;39574;50.534;8.500;2022-08-01T23:54:53;19.8;99.9
53675;DHT22;39574;50.534;8.500;2022-08-01T23:59:56;19.7;99.9
